Creek Data

    Home     View Charts     View Raw Data     Messages

ID Distance Battery Voltage Battery Current Internal Temp Internal Humidity External Temp Solar Input rssi snr Time Stamp Record
34877 15.3 4.02 5 66 37 60 5.1 -79 7 03/13/2025 02:30 PM 16623
34876 15.3 4.02 0 63 38 56 5.1 -81 7 03/13/2025 02:00 PM 16621
34875 15.3 4.09 5 63 37 57 5.1 -81 7 03/13/2025 01:45 PM 16620
34874 15.2 4.02 0 62 38 57 5.1 -82 8 03/13/2025 01:30 PM 16619
34873 15.3 4.07 5 61 37 57 5.1 -78 8 03/13/2025 01:15 PM 16618
34872 15.3 4.07 5 60 39 56 5.1 -78 8 03/13/2025 01:00 PM 16617
34871 15.2 4.02 5 58 38 53 5.1 -78 8 03/13/2025 12:45 PM 16616
34870 15.2 4.02 5 57 39 53 5.1 -78 8 03/13/2025 12:30 PM 16615
34869 15.2 4.10 5 58 38 53 5.1 -78 8 03/13/2025 12:15 PM 16614
34868 15.3 4.14 5 59 38 56 5.1 -80 8 03/13/2025 12:00 PM 16613
34867 15.3 4.02 0 56 39 56 5.1 -80 7 03/13/2025 11:45 AM 16612
34866 15.3 4.02 0 56 38 51 5.1 -79 8 03/13/2025 11:30 AM 16611
34865 15.3 4.02 5 57 38 53 5.1 -77 8 03/13/2025 11:15 AM 16610
34864 15.4 4.02 0 57 37 56 5.1 -96 7 03/13/2025 11:00 AM 16609
34863 15.4 4.02 0 55 38 56 5.1 -80 7 03/13/2025 10:45 AM 16608
34862 15.4 4.02 5 54 38 55 5.1 -85 8 03/13/2025 10:30 AM 16607
34861 15.3 4.02 0 53 37 52 5.1 -80 8 03/13/2025 10:15 AM 16606
34860 15.3 4.02 5 51 37 54 5.1 -83 8 03/13/2025 09:45 AM 16604
34859 15.2 4.02 0 47 38 50 5.1 -83 7 03/13/2025 09:30 AM 16603
34858 15.3 4.05 5 46 38 48 5.1 -83 8 03/13/2025 09:15 AM 16602
34857 15.2 4.14 5 45 38 47 5.1 -82 6 03/13/2025 09:00 AM 16601
34856 15.2 4.13 65 43 38 45 4.5 -82 7 03/13/2025 08:45 AM 16600
34855 15.2 4.09 54 42 39 44 4.5 -83 7 03/13/2025 08:30 AM 16599
34854 15.2 4.02 20 41 39 42 4.5 -82 7 03/13/2025 08:15 AM 16598
34853 15.2 4.02 5 41 40 42 4.5 -81 5 03/13/2025 08:00 AM 16597